sensor_id;sensor_type;location;lat;lon;timestamp;temperature;humidity
18365;DHT22;9309;52.126;11.616;2023-09-08T00:00:24;18.50;66.30
18365;DHT22;9309;52.126;11.616;2023-09-08T00:02:50;18.50;66.70
18365;DHT22;9309;52.126;11.616;2023-09-08T00:05:17;18.60;66.90
18365;DHT22;9309;52.126;11.616;2023-09-08T00:07:44;18.50;66.70
18365;DHT22;9309;52.126;11.616;2023-09-08T00:10:11;18.40;67.00
18365;DHT22;9309;52.126;11.616;2023-09-08T00:12:38;18.40;66.90
18365;DHT22;9309;52.126;11.616;2023-09-08T00:15:06;18.50;67.10
18365;DHT22;9309;52.126;11.616;2023-09-08T00:17:35;18.50;67.30
18365;DHT22;9309;52.126;11.616;2023-09-08T00:20:02;18.50;67.70
18365;DHT22;9309;52.126;11.616;2023-09-08T00:22:34;18.50;67.70
18365;DHT22;9309;52.126;11.616;2023-09-08T00:25:00;18.50;67.90
18365;DHT22;9309;52.126;11.616;2023-09-08T00:27:28;18.40;67.70
18365;DHT22;9309;52.126;11.616;2023-09-08T00:29:55;18.20;68.40
18365;DHT22;9309;52.126;11.616;2023-09-08T00:32:22;18.20;68.90
18365;DHT22;9309;52.126;11.616;2023-09-08T00:34:50;18.10;69.00
18365;DHT22;9309;52.126;11.616;2023-09-08T00:37:17;18.10;69.50
18365;DHT22;9309;52.126;11.616;2023-09-08T00:39:43;17.90;69.80
18365;DHT22;9309;52.126;11.616;2023-09-08T00:42:10;17.90;69.80
18365;DHT22;9309;52.126;11.616;2023-09-08T00:44:37;17.70;70.50
18365;DHT22;9309;52.126;11.616;2023-09-08T00:47:03;17.40;71.60
18365;DHT22;9309;52.126;11.616;2023-09-08T00:49:30;17.60;71.20
18365;DHT22;9309;52.126;11.616;2023-09-08T00:51:59;17.50;70.90
18365;DHT22;9309;52.126;11.616;2023-09-08T00:54:28;17.50;71.00
18365;DHT22;9309;52.126;11.616;2023-09-08T00:56:56;17.40;71.30
18365;DHT22;9309;52.126;11.616;2023-09-08T00:59:24;17.20;72.70
18365;DHT22;9309;52.126;11.616;2023-09-08T01:01:51;16.90;73.30
18365;DHT22;9309;52.126;11.616;2023-09-08T01:04:18;16.90;73.90
18365;DHT22;9309;52.126;11.616;2023-09-08T01:06:45;17.00;73.70
18365;DHT22;9309;52.126;11.616;2023-09-08T01:09:14;17.00;73.20
18365;DHT22;9309;52.126;11.616;2023-09-08T01:11:41;17.30;72.40
18365;DHT22;9309;52.126;11.616;2023-09-08T01:14:08;17.30;71.70
18365;DHT22;9309;52.126;11.616;2023-09-08T01:16:38;17.30;72.00
18365;DHT22;9309;52.126;11.616;2023-09-08T01:19:07;17.10;72.70
18365;DHT22;9309;52.126;11.616;2023-09-08T01:21:58;17.10;72.40
18365;DHT22;9309;52.126;11.616;2023-09-08T01:24:44;17.20;72.60
18365;DHT22;9309;52.126;11.616;2023-09-08T01:27:18;17.00;73.10
18365;DHT22;9309;52.126;11.616;2023-09-08T01:29:47;17.00;74.10
18365;DHT22;9309;52.126;11.616;2023-09-08T01:32:13;17.00;73.50
18365;DHT22;9309;52.126;11.616;2023-09-08T01:34:40;17.00;73.60
18365;DHT22;9309;52.126;11.616;2023-09-08T01:37:07;17.00;73.90
18365;DHT22;9309;52.126;11.616;2023-09-08T01:39:33;16.90;73.90
18365;DHT22;9309;52.126;11.616;2023-09-08T01:42:01;16.90;74.60
18365;DHT22;9309;52.126;11.616;2023-09-08T01:44:29;17.00;73.90
18365;DHT22;9309;52.126;11.616;2023-09-08T01:46:55;17.00;73.80
18365;DHT22;9309;52.126;11.616;2023-09-08T01:49:22;17.00;73.50
18365;DHT22;9309;52.126;11.616;2023-09-08T01:51:49;16.90;74.40
18365;DHT22;9309;52.126;11.616;2023-09-08T01:54:15;16.60;75.30
18365;DHT22;9309;52.126;11.616;2023-09-08T01:56:42;16.60;75.20
18365;DHT22;9309;52.126;11.616;2023-09-08T01:59:09;16.60;75.40
18365;DHT22;9309;52.126;11.616;2023-09-08T02:01:37;16.70;75.30
18365;DHT22;9309;52.126;11.616;2023-09-08T02:04:03;16.70;75.10
18365;DHT22;9309;52.126;11.616;2023-09-08T02:06:30;16.60;75.10
18365;DHT22;9309;52.126;11.616;2023-09-08T02:08:57;16.50;75.80
18365;DHT22;9309;52.126;11.616;2023-09-08T02:11:24;16.60;75.70
18365;DHT22;9309;52.126;11.616;2023-09-08T02:13:51;16.60;75.50
18365;DHT22;9309;52.126;11.616;2023-09-08T02:16:19;16.60;75.80
18365;DHT22;9309;52.126;11.616;2023-09-08T02:18:51;16.60;76.00
18365;DHT22;9309;52.126;11.616;2023-09-08T02:21:17;16.30;77.20
18365;DHT22;9309;52.126;11.616;2023-09-08T02:23:44;16.40;77.10
18365;DHT22;9309;52.126;11.616;2023-09-08T02:26:10;16.50;76.00
18365;DHT22;9309;52.126;11.616;2023-09-08T02:28:37;16.50;75.70
18365;DHT22;9309;52.126;11.616;2023-09-08T02:31:04;16.50;75.80
18365;DHT22;9309;52.126;11.616;2023-09-08T02:33:30;16.30;76.20
18365;DHT22;9309;52.126;11.616;2023-09-08T02:36:02;16.30;76.10
18365;DHT22;9309;52.126;11.616;2023-09-08T02:38:28;16.20;76.80
18365;DHT22;9309;52.126;11.616;2023-09-08T02:40:55;16.30;76.20
18365;DHT22;9309;52.126;11.616;2023-09-08T02:43:22;16.40;76.00
18365;DHT22;9309;52.126;11.616;2023-09-08T02:45:49;16.20;76.30
18365;DHT22;9309;52.126;11.616;2023-09-08T02:48:16;15.90;77.60
18365;DHT22;9309;52.126;11.616;2023-09-08T02:50:43;15.80;77.80
18365;DHT22;9309;52.126;11.616;2023-09-08T02:53:11;15.90;77.70
18365;DHT22;9309;52.126;11.616;2023-09-08T02:55:38;16.10;77.00
18365;DHT22;9309;52.126;11.616;2023-09-08T02:58:04;16.00;76.90
18365;DHT22;9309;52.126;11.616;2023-09-08T03:00:31;16.00;76.90
18365;DHT22;9309;52.126;11.616;2023-09-08T03:02:57;16.00;76.70
18365;DHT22;9309;52.126;11.616;2023-09-08T03:05:25;16.00;76.60
18365;DHT22;9309;52.126;11.616;2023-09-08T03:07:52;15.90;77.40
18365;DHT22;9309;52.126;11.616;2023-09-08T03:10:21;16.00;77.00
18365;DHT22;9309;52.126;11.616;2023-09-08T03:12:47;16.00;77.10
18365;DHT22;9309;52.126;11.616;2023-09-08T03:15:15;15.80;77.00
18365;DHT22;9309;52.126;11.616;2023-09-08T03:17:43;15.70;77.70
18365;DHT22;9309;52.126;11.616;2023-09-08T03:20:09;15.70;78.00
18365;DHT22;9309;52.126;11.616;2023-09-08T03:22:36;15.80;77.30
18365;DHT22;9309;52.126;11.616;2023-09-08T03:25:04;15.70;78.20
18365;DHT22;9309;52.126;11.616;2023-09-08T03:27:32;15.40;79.50
18365;DHT22;9309;52.126;11.616;2023-09-08T03:29:59;15.50;79.00
18365;DHT22;9309;52.126;11.616;2023-09-08T03:32:26;15.30;79.40
18365;DHT22;9309;52.126;11.616;2023-09-08T03:34:54;15.30;79.70
18365;DHT22;9309;52.126;11.616;2023-09-08T03:37:21;15.20;80.70
18365;DHT22;9309;52.126;11.616;2023-09-08T03:39:49;15.30;79.60
18365;DHT22;9309;52.126;11.616;2023-09-08T03:42:16;15.50;79.10
18365;DHT22;9309;52.126;11.616;2023-09-08T03:44:44;15.60;78.80
18365;DHT22;9309;52.126;11.616;2023-09-08T03:47:10;15.70;78.00
18365;DHT22;9309;52.126;11.616;2023-09-08T03:49:37;15.70;77.90
18365;DHT22;9309;52.126;11.616;2023-09-08T03:52:04;15.70;77.70
18365;DHT22;9309;52.126;11.616;2023-09-08T03:54:31;15.40;79.40
18365;DHT22;9309;52.126;11.616;2023-09-08T03:56:57;15.40;79.20
18365;DHT22;9309;52.126;11.616;2023-09-08T03:59:24;15.40;79.20
18365;DHT22;9309;52.126;11.616;2023-09-08T04:01:52;15.20;80.40
18365;DHT22;9309;52.126;11.616;2023-09-08T04:04:19;15.30;80.00
18365;DHT22;9309;52.126;11.616;2023-09-08T04:06:46;15.30;79.70
18365;DHT22;9309;52.126;11.616;2023-09-08T04:09:13;15.30;79.90
18365;DHT22;9309;52.126;11.616;2023-09-08T04:11:40;15.40;79.30
18365;DHT22;9309;52.126;11.616;2023-09-08T04:14:06;15.40;79.00
18365;DHT22;9309;52.126;11.616;2023-09-08T04:16:33;15.40;79.50
18365;DHT22;9309;52.126;11.616;2023-09-08T04:19:01;15.30;79.80
18365;DHT22;9309;52.126;11.616;2023-09-08T04:21:28;15.40;79.60
18365;DHT22;9309;52.126;11.616;2023-09-08T04:23:55;15.40;79.70
18365;DHT22;9309;52.126;11.616;2023-09-08T04:26:22;15.40;79.50
18365;DHT22;9309;52.126;11.616;2023-09-08T04:28:49;15.40;79.70
18365;DHT22;9309;52.126;11.616;2023-09-08T04:31:15;15.30;79.60
18365;DHT22;9309;52.126;11.616;2023-09-08T04:33:43;15.20;80.10
18365;DHT22;9309;52.126;11.616;2023-09-08T04:36:11;15.20;80.20
18365;DHT22;9309;52.126;11.616;2023-09-08T04:38:38;15.10;80.40
18365;DHT22;9309;52.126;11.616;2023-09-08T04:41:09;15.30;80.50
18365;DHT22;9309;52.126;11.616;2023-09-08T04:43:36;15.40;79.30
18365;DHT22;9309;52.126;11.616;2023-09-08T04:46:02;15.30;79.00
18365;DHT22;9309;52.126;11.616;2023-09-08T04:48:30;15.30;79.40
18365;DHT22;9309;52.126;11.616;2023-09-08T04:50:56;15.40;79.20
18365;DHT22;9309;52.126;11.616;2023-09-08T04:53:24;15.40;79.10
18365;DHT22;9309;52.126;11.616;2023-09-08T04:55:51;15.40;79.10
18365;DHT22;9309;52.126;11.616;2023-09-08T04:58:18;15.40;78.60
18365;DHT22;9309;52.126;11.616;2023-09-08T05:00:44;15.40;78.50
18365;DHT22;9309;52.126;11.616;2023-09-08T05:03:11;15.40;78.90
18365;DHT22;9309;52.126;11.616;2023-09-08T05:05:38;15.40;78.90
18365;DHT22;9309;52.126;11.616;2023-09-08T05:08:05;15.40;78.70
18365;DHT22;9309;52.126;11.616;2023-09-08T05:10:33;15.40;78.90
18365;DHT22;9309;52.126;11.616;2023-09-08T05:13:00;15.40;79.00
18365;DHT22;9309;52.126;11.616;2023-09-08T05:15:27;15.50;79.10
18365;DHT22;9309;52.126;11.616;2023-09-08T05:17:54;15.60;79.00
18365;DHT22;9309;52.126;11.616;2023-09-08T05:20:22;15.60;79.30
18365;DHT22;9309;52.126;11.616;2023-09-08T05:22:49;15.60;79.00
18365;DHT22;9309;52.126;11.616;2023-09-08T05:25:16;15.60;79.30
18365;DHT22;9309;52.126;11.616;2023-09-08T05:27:44;15.70;78.90
18365;DHT22;9309;52.126;11.616;2023-09-08T05:30:12;15.80;78.70
18365;DHT22;9309;52.126;11.616;2023-09-08T05:32:38;15.90;78.40
18365;DHT22;9309;52.126;11.616;2023-09-08T05:35:05;16.00;78.20
18365;DHT22;9309;52.126;11.616;2023-09-08T05:37:32;15.90;78.80
18365;DHT22;9309;52.126;11.616;2023-09-08T05:39:59;15.90;79.30
18365;DHT22;9309;52.126;11.616;2023-09-08T05:42:26;16.10;78.60
18365;DHT22;9309;52.126;11.616;2023-09-08T05:44:54;16.20;78.40
18365;DHT22;9309;52.126;11.616;2023-09-08T05:47:21;16.40;77.80
18365;DHT22;9309;52.126;11.616;2023-09-08T05:49:48;16.40;77.60
18365;DHT22;9309;52.126;11.616;2023-09-08T05:52:14;16.50;77.40
18365;DHT22;9309;52.126;11.616;2023-09-08T05:54:42;16.50;77.40
18365;DHT22;9309;52.126;11.616;2023-09-08T05:57:10;16.50;77.30
18365;DHT22;9309;52.126;11.616;2023-09-08T05:59:36;16.60;77.50
18365;DHT22;9309;52.126;11.616;2023-09-08T06:02:04;16.70;77.50
18365;DHT22;9309;52.126;11.616;2023-09-08T06:04:31;16.70;76.70
18365;DHT22;9309;52.126;11.616;2023-09-08T06:06:59;16.70;76.60
18365;DHT22;9309;52.126;11.616;2023-09-08T06:09:25;16.90;76.60
18365;DHT22;9309;52.126;11.616;2023-09-08T06:11:52;16.90;76.50
18365;DHT22;9309;52.126;11.616;2023-09-08T06:14:19;17.10;75.90
18365;DHT22;9309;52.126;11.616;2023-09-08T06:16:47;17.10;75.90
18365;DHT22;9309;52.126;11.616;2023-09-08T06:19:15;17.10;75.50
18365;DHT22;9309;52.126;11.616;2023-09-08T06:21:42;17.20;75.30
18365;DHT22;9309;52.126;11.616;2023-09-08T06:24:09;17.30;75.00
18365;DHT22;9309;52.126;11.616;2023-09-08T06:26:36;17.20;75.20
18365;DHT22;9309;52.126;11.616;2023-09-08T06:29:03;17.20;75.50
18365;DHT22;9309;52.126;11.616;2023-09-08T06:31:31;17.20;75.80
18365;DHT22;9309;52.126;11.616;2023-09-08T06:33:57;17.40;75.10
18365;DHT22;9309;52.126;11.616;2023-09-08T06:36:26;17.40;75.10
18365;DHT22;9309;52.126;11.616;2023-09-08T06:38:53;17.50;75.20
18365;DHT22;9309;52.126;11.616;2023-09-08T06:41:19;17.50;75.10
18365;DHT22;9309;52.126;11.616;2023-09-08T06:43:48;17.80;74.70
18365;DHT22;9309;52.126;11.616;2023-09-08T06:46:20;17.90;74.30
18365;DHT22;9309;52.126;11.616;2023-09-08T06:48:47;17.90;73.90
18365;DHT22;9309;52.126;11.616;2023-09-08T06:51:14;18.10;73.30
18365;DHT22;9309;52.126;11.616;2023-09-08T06:53:43;18.20;72.90
18365;DHT22;9309;52.126;11.616;2023-09-08T06:56:11;18.20;73.00
18365;DHT22;9309;52.126;11.616;2023-09-08T06:58:37;18.30;72.50
18365;DHT22;9309;52.126;11.616;2023-09-08T07:01:04;18.20;72.40
18365;DHT22;9309;52.126;11.616;2023-09-08T07:03:31;18.10;73.20
18365;DHT22;9309;52.126;11.616;2023-09-08T07:06:03;18.20;73.30
18365;DHT22;9309;52.126;11.616;2023-09-08T07:08:30;18.30;73.30
18365;DHT22;9309;52.126;11.616;2023-09-08T07:10:58;18.30;73.00
18365;DHT22;9309;52.126;11.616;2023-09-08T07:13:24;18.20;73.30
18365;DHT22;9309;52.126;11.616;2023-09-08T07:15:51;18.40;71.90
18365;DHT22;9309;52.126;11.616;2023-09-08T07:18:18;18.40;72.30
18365;DHT22;9309;52.126;11.616;2023-09-08T07:20:45;18.50;72.40
18365;DHT22;9309;52.126;11.616;2023-09-08T07:23:12;18.70;72.00
18365;DHT22;9309;52.126;11.616;2023-09-08T07:25:39;18.80;71.50
18365;DHT22;9309;52.126;11.616;2023-09-08T07:28:07;18.80;71.50
18365;DHT22;9309;52.126;11.616;2023-09-08T07:30:34;18.50;72.00
18365;DHT22;9309;52.126;11.616;2023-09-08T07:33:01;18.60;71.90
18365;DHT22;9309;52.126;11.616;2023-09-08T07:35:30;18.90;70.00
18365;DHT22;9309;52.126;11.616;2023-09-08T07:37:56;19.00;70.00
18365;DHT22;9309;52.126;11.616;2023-09-08T07:40:24;19.30;69.50
18365;DHT22;9309;52.126;11.616;2023-09-08T07:42:50;19.40;68.10
18365;DHT22;9309;52.126;11.616;2023-09-08T07:45:19;19.40;68.20
18365;DHT22;9309;52.126;11.616;2023-09-08T07:47:46;19.40;68.60
18365;DHT22;9309;52.126;11.616;2023-09-08T07:50:16;19.50;68.40
18365;DHT22;9309;52.126;11.616;2023-09-08T07:52:43;19.80;67.90
18365;DHT22;9309;52.126;11.616;2023-09-08T07:55:09;19.90;67.50
18365;DHT22;9309;52.126;11.616;2023-09-08T07:57:36;20.00;66.80
18365;DHT22;9309;52.126;11.616;2023-09-08T08:00:03;20.00;67.60
18365;DHT22;9309;52.126;11.616;2023-09-08T08:02:41;20.30;66.60
18365;DHT22;9309;52.126;11.616;2023-09-08T08:05:23;20.20;66.20
18365;DHT22;9309;52.126;11.616;2023-09-08T08:07:50;20.30;66.50
18365;DHT22;9309;52.126;11.616;2023-09-08T08:10:17;20.30;66.10
18365;DHT22;9309;52.126;11.616;2023-09-08T08:12:44;20.20;66.50
18365;DHT22;9309;52.126;11.616;2023-09-08T08:15:11;20.30;67.50
18365;DHT22;9309;52.126;11.616;2023-09-08T08:17:39;20.30;65.90
18365;DHT22;9309;52.126;11.616;2023-09-08T08:20:06;20.60;65.90
18365;DHT22;9309;52.126;11.616;2023-09-08T08:22:34;21.00;65.10
18365;DHT22;9309;52.126;11.616;2023-09-08T08:25:01;21.10;63.80
18365;DHT22;9309;52.126;11.616;2023-09-08T08:27:28;21.10;64.00
18365;DHT22;9309;52.126;11.616;2023-09-08T08:29:56;21.20;64.10
18365;DHT22;9309;52.126;11.616;2023-09-08T08:32:24;21.20;63.60
18365;DHT22;9309;52.126;11.616;2023-09-08T08:34:52;21.20;64.00
18365;DHT22;9309;52.126;11.616;2023-09-08T08:37:19;21.50;64.00
18365;DHT22;9309;52.126;11.616;2023-09-08T08:39:45;21.70;63.30
18365;DHT22;9309;52.126;11.616;2023-09-08T08:42:12;21.60;63.50
18365;DHT22;9309;52.126;11.616;2023-09-08T08:44:39;21.60;63.20
18365;DHT22;9309;52.126;11.616;2023-09-08T08:47:08;21.70;63.10
18365;DHT22;9309;52.126;11.616;2023-09-08T08:49:35;21.60;62.40
18365;DHT22;9309;52.126;11.616;2023-09-08T08:52:05;21.50;62.50
18365;DHT22;9309;52.126;11.616;2023-09-08T08:54:33;21.70;62.70
18365;DHT22;9309;52.126;11.616;2023-09-08T08:57:00;21.90;62.90
18365;DHT22;9309;52.126;11.616;2023-09-08T08:59:27;22.00;62.40
18365;DHT22;9309;52.126;11.616;2023-09-08T09:01:53;22.20;61.70
18365;DHT22;9309;52.126;11.616;2023-09-08T09:04:20;22.20;61.30
18365;DHT22;9309;52.126;11.616;2023-09-08T09:06:47;22.40;61.20
18365;DHT22;9309;52.126;11.616;2023-09-08T09:09:15;22.40;62.40
18365;DHT22;9309;52.126;11.616;2023-09-08T09:11:42;22.50;61.70
18365;DHT22;9309;52.126;11.616;2023-09-08T09:14:08;22.80;59.90
18365;DHT22;9309;52.126;11.616;2023-09-08T09:16:38;22.90;60.60
18365;DHT22;9309;52.126;11.616;2023-09-08T09:19:05;23.00;60.30
18365;DHT22;9309;52.126;11.616;2023-09-08T09:21:41;23.00;59.90
18365;DHT22;9309;52.126;11.616;2023-09-08T09:24:07;23.10;60.20
18365;DHT22;9309;52.126;11.616;2023-09-08T09:26:40;23.20;58.90
18365;DHT22;9309;52.126;11.616;2023-09-08T09:29:11;23.30;58.10
18365;DHT22;9309;52.126;11.616;2023-09-08T09:31:40;23.40;58.70
18365;DHT22;9309;52.126;11.616;2023-09-08T09:34:07;23.50;59.00
18365;DHT22;9309;52.126;11.616;2023-09-08T09:36:33;23.50;57.30
18365;DHT22;9309;52.126;11.616;2023-09-08T09:38:59;23.50;57.50
18365;DHT22;9309;52.126;11.616;2023-09-08T09:41:27;23.60;57.10
18365;DHT22;9309;52.126;11.616;2023-09-08T09:43:55;23.80;56.50
18365;DHT22;9309;52.126;11.616;2023-09-08T09:46:22;24.10;56.90
18365;DHT22;9309;52.126;11.616;2023-09-08T09:48:50;24.30;57.20
18365;DHT22;9309;52.126;11.616;2023-09-08T09:51:17;24.20;54.80
18365;DHT22;9309;52.126;11.616;2023-09-08T09:53:44;24.40;54.60
18365;DHT22;9309;52.126;11.616;2023-09-08T09:56:13;24.50;53.90
18365;DHT22;9309;52.126;11.616;2023-09-08T09:58:41;24.40;53.90
18365;DHT22;9309;52.126;11.616;2023-09-08T10:01:10;24.40;54.30
18365;DHT22;9309;52.126;11.616;2023-09-08T10:03:37;24.50;52.60
18365;DHT22;9309;52.126;11.616;2023-09-08T10:06:04;24.40;53.30
18365;DHT22;9309;52.126;11.616;2023-09-08T10:08:31;24.50;52.90
18365;DHT22;9309;52.126;11.616;2023-09-08T10:11:02;24.70;52.10
18365;DHT22;9309;52.126;11.616;2023-09-08T10:13:31;24.60;52.70
18365;DHT22;9309;52.126;11.616;2023-09-08T10:15:58;24.90;53.10
18365;DHT22;9309;52.126;11.616;2023-09-08T10:18:26;24.90;52.00
18365;DHT22;9309;52.126;11.616;2023-09-08T10:20:53;24.90;52.00
18365;DHT22;9309;52.126;11.616;2023-09-08T10:23:21;24.90;51.00
18365;DHT22;9309;52.126;11.616;2023-09-08T10:25:50;24.80;51.90
18365;DHT22;9309;52.126;11.616;2023-09-08T10:28:20;24.70;51.40
18365;DHT22;9309;52.126;11.616;2023-09-08T10:30:47;24.60;52.50
18365;DHT22;9309;52.126;11.616;2023-09-08T10:33:14;24.50;52.30
18365;DHT22;9309;52.126;11.616;2023-09-08T10:35:43;24.60;53.40
18365;DHT22;9309;52.126;11.616;2023-09-08T10:38:22;24.80;52.70
18365;DHT22;9309;52.126;11.616;2023-09-08T10:40:49;25.10;51.50
18365;DHT22;9309;52.126;11.616;2023-09-08T10:43:16;25.10;50.00
18365;DHT22;9309;52.126;11.616;2023-09-08T10:45:43;25.30;50.70
18365;DHT22;9309;52.126;11.616;2023-09-08T10:48:10;25.40;49.30
18365;DHT22;9309;52.126;11.616;2023-09-08T10:50:39;25.50;49.80
18365;DHT22;9309;52.126;11.616;2023-09-08T10:53:15;26.00;47.70
18365;DHT22;9309;52.126;11.616;2023-09-08T10:55:43;26.80;46.90
18365;DHT22;9309;52.126;11.616;2023-09-08T10:58:19;30.30;41.50
18365;DHT22;9309;52.126;11.616;2023-09-08T11:00:48;32.50;35.90
18365;DHT22;9309;52.126;11.616;2023-09-08T11:03:26;34.70;33.00
18365;DHT22;9309;52.126;11.616;2023-09-08T11:05:54;37.90;29.60
18365;DHT22;9309;52.126;11.616;2023-09-08T11:08:22;38.40;28.50
18365;DHT22;9309;52.126;11.616;2023-09-08T11:10:49;38.50;27.60
18365;DHT22;9309;52.126;11.616;2023-09-08T11:13:16;38.00;29.00
18365;DHT22;9309;52.126;11.616;2023-09-08T11:15:43;38.50;28.20
18365;DHT22;9309;52.126;11.616;2023-09-08T11:18:12;39.10;26.70
18365;DHT22;9309;52.126;11.616;2023-09-08T11:20:39;40.20;25.20
18365;DHT22;9309;52.126;11.616;2023-09-08T11:23:10;40.80;25.00
18365;DHT22;9309;52.126;11.616;2023-09-08T11:25:39;39.20;25.60
18365;DHT22;9309;52.126;11.616;2023-09-08T11:28:06;39.40;25.70
18365;DHT22;9309;52.126;11.616;2023-09-08T11:30:33;39.20;25.10
18365;DHT22;9309;52.126;11.616;2023-09-08T11:32:59;38.60;26.40
18365;DHT22;9309;52.126;11.616;2023-09-08T11:35:31;39.20;25.30
18365;DHT22;9309;52.126;11.616;2023-09-08T11:37:59;38.00;26.00
18365;DHT22;9309;52.126;11.616;2023-09-08T11:40:27;38.70;25.70
18365;DHT22;9309;52.126;11.616;2023-09-08T11:42:55;39.80;24.20
18365;DHT22;9309;52.126;11.616;2023-09-08T11:45:22;38.10;26.30
18365;DHT22;9309;52.126;11.616;2023-09-08T11:47:49;40.70;24.10
18365;DHT22;9309;52.126;11.616;2023-09-08T11:50:19;41.80;22.90
18365;DHT22;9309;52.126;11.616;2023-09-08T11:52:50;41.20;23.80
18365;DHT22;9309;52.126;11.616;2023-09-08T11:55:17;42.10;22.70
18365;DHT22;9309;52.126;11.616;2023-09-08T11:57:48;41.20;23.20
18365;DHT22;9309;52.126;11.616;2023-09-08T12:00:21;39.80;24.20
18365;DHT22;9309;52.126;11.616;2023-09-08T12:02:48;38.30;25.80
18365;DHT22;9309;52.126;11.616;2023-09-08T12:05:20;41.20;23.80
18365;DHT22;9309;52.126;11.616;2023-09-08T12:07:48;40.90;23.90
18365;DHT22;9309;52.126;11.616;2023-09-08T12:10:14;41.90;23.00
18365;DHT22;9309;52.126;11.616;2023-09-08T12:12:41;43.50;22.10
18365;DHT22;9309;52.126;11.616;2023-09-08T12:15:08;42.50;22.60
18365;DHT22;9309;52.126;11.616;2023-09-08T12:17:47;41.70;24.40
18365;DHT22;9309;52.126;11.616;2023-09-08T12:20:14;43.00;22.90
18365;DHT22;9309;52.126;11.616;2023-09-08T12:22:46;42.90;22.40
18365;DHT22;9309;52.126;11.616;2023-09-08T12:25:13;41.20;24.00
18365;DHT22;9309;52.126;11.616;2023-09-08T12:27:41;41.20;23.60
18365;DHT22;9309;52.126;11.616;2023-09-08T12:30:08;41.40;23.60
18365;DHT22;9309;52.126;11.616;2023-09-08T12:32:35;40.30;24.70
18365;DHT22;9309;52.126;11.616;2023-09-08T12:35:03;41.80;23.40
18365;DHT22;9309;52.126;11.616;2023-09-08T12:37:32;41.90;23.30
18365;DHT22;9309;52.126;11.616;2023-09-08T12:39:59;42.90;22.80
18365;DHT22;9309;52.126;11.616;2023-09-08T12:42:26;41.70;22.60
18365;DHT22;9309;52.126;11.616;2023-09-08T12:44:54;40.20;23.50
18365;DHT22;9309;52.126;11.616;2023-09-08T12:47:21;40.20;24.40
18365;DHT22;9309;52.126;11.616;2023-09-08T12:49:48;41.60;23.10
18365;DHT22;9309;52.126;11.616;2023-09-08T12:52:16;42.40;22.60
18365;DHT22;9309;52.126;11.616;2023-09-08T12:54:42;43.70;21.70
18365;DHT22;9309;52.126;11.616;2023-09-08T12:57:09;41.80;23.10
18365;DHT22;9309;52.126;11.616;2023-09-08T12:59:36;42.10;23.20
18365;DHT22;9309;52.126;11.616;2023-09-08T13:02:02;41.70;23.30
18365;DHT22;9309;52.126;11.616;2023-09-08T13:04:29;41.90;23.00
18365;DHT22;9309;52.126;11.616;2023-09-08T13:06:56;43.70;22.00
18365;DHT22;9309;52.126;11.616;2023-09-08T13:09:25;42.50;22.70
18365;DHT22;9309;52.126;11.616;2023-09-08T13:11:51;43.40;21.80
18365;DHT22;9309;52.126;11.616;2023-09-08T13:14:18;42.60;22.50
18365;DHT22;9309;52.126;11.616;2023-09-08T13:16:44;45.00;20.90
18365;DHT22;9309;52.126;11.616;2023-09-08T13:19:11;43.20;21.70
18365;DHT22;9309;52.126;11.616;2023-09-08T13:21:38;42.40;22.40
18365;DHT22;9309;52.126;11.616;2023-09-08T13:24:06;42.40;23.00
18365;DHT22;9309;52.126;11.616;2023-09-08T13:26:34;40.00;24.30
18365;DHT22;9309;52.126;11.616;2023-09-08T13:29:00;38.90;25.90
18365;DHT22;9309;52.126;11.616;2023-09-08T13:31:27;38.50;25.80
18365;DHT22;9309;52.126;11.616;2023-09-08T13:33:54;39.50;25.10
18365;DHT22;9309;52.126;11.616;2023-09-08T13:36:21;38.90;25.90
18365;DHT22;9309;52.126;11.616;2023-09-08T13:38:47;39.60;25.30
18365;DHT22;9309;52.126;11.616;2023-09-08T13:41:14;40.20;24.70
18365;DHT22;9309;52.126;11.616;2023-09-08T13:43:42;42.00;23.30
18365;DHT22;9309;52.126;11.616;2023-09-08T13:46:08;40.20;24.60
18365;DHT22;9309;52.126;11.616;2023-09-08T13:48:35;40.00;25.10
18365;DHT22;9309;52.126;11.616;2023-09-08T13:51:01;40.60;24.80
18365;DHT22;9309;52.126;11.616;2023-09-08T13:53:28;39.00;25.30
18365;DHT22;9309;52.126;11.616;2023-09-08T13:55:55;37.80;26.90
18365;DHT22;9309;52.126;11.616;2023-09-08T13:58:22;34.90;29.70
18365;DHT22;9309;52.126;11.616;2023-09-08T14:00:50;32.60;32.50
18365;DHT22;9309;52.126;11.616;2023-09-08T14:03:17;31.30;33.40
18365;DHT22;9309;52.126;11.616;2023-09-08T14:05:44;30.70;35.00
18365;DHT22;9309;52.126;11.616;2023-09-08T14:08:10;30.70;35.50
18365;DHT22;9309;52.126;11.616;2023-09-08T14:10:37;31.20;35.90
18365;DHT22;9309;52.126;11.616;2023-09-08T14:13:04;31.00;35.80
18365;DHT22;9309;52.126;11.616;2023-09-08T14:15:30;30.60;35.20
18365;DHT22;9309;52.126;11.616;2023-09-08T14:17:58;30.40;36.00
18365;DHT22;9309;52.126;11.616;2023-09-08T14:20:25;30.20;37.30
18365;DHT22;9309;52.126;11.616;2023-09-08T14:22:51;30.20;36.60
18365;DHT22;9309;52.126;11.616;2023-09-08T14:25:18;30.00;36.00
18365;DHT22;9309;52.126;11.616;2023-09-08T14:27:45;29.80;35.90
18365;DHT22;9309;52.126;11.616;2023-09-08T14:30:11;29.60;36.50
18365;DHT22;9309;52.126;11.616;2023-09-08T14:32:38;29.60;36.20
18365;DHT22;9309;52.126;11.616;2023-09-08T14:35:07;29.60;35.90
18365;DHT22;9309;52.126;11.616;2023-09-08T14:37:34;29.50;36.00
18365;DHT22;9309;52.126;11.616;2023-09-08T14:40:00;29.40;34.30
18365;DHT22;9309;52.126;11.616;2023-09-08T14:42:28;29.30;33.80
18365;DHT22;9309;52.126;11.616;2023-09-08T14:44:54;29.20;34.40
18365;DHT22;9309;52.126;11.616;2023-09-08T14:47:21;29.20;35.30
18365;DHT22;9309;52.126;11.616;2023-09-08T14:49:48;29.30;36.10
18365;DHT22;9309;52.126;11.616;2023-09-08T14:52:16;29.20;36.20
18365;DHT22;9309;52.126;11.616;2023-09-08T14:54:46;29.20;35.70
18365;DHT22;9309;52.126;11.616;2023-09-08T14:57:12;29.20;36.30
18365;DHT22;9309;52.126;11.616;2023-09-08T14:59:39;29.20;36.90
18365;DHT22;9309;52.126;11.616;2023-09-08T15:02:07;29.20;36.40
18365;DHT22;9309;52.126;11.616;2023-09-08T15:04:34;29.10;36.90
18365;DHT22;9309;52.126;11.616;2023-09-08T15:07:01;29.20;37.40
18365;DHT22;9309;52.126;11.616;2023-09-08T15:09:29;29.10;36.50
18365;DHT22;9309;52.126;11.616;2023-09-08T15:11:56;29.10;37.00
18365;DHT22;9309;52.126;11.616;2023-09-08T15:14:22;29.20;36.40
18365;DHT22;9309;52.126;11.616;2023-09-08T15:16:49;29.10;37.00
18365;DHT22;9309;52.126;11.616;2023-09-08T15:19:16;29.10;36.80
18365;DHT22;9309;52.126;11.616;2023-09-08T15:21:43;28.90;36.40
18365;DHT22;9309;52.126;11.616;2023-09-08T15:24:09;28.90;37.10
18365;DHT22;9309;52.126;11.616;2023-09-08T15:26:37;29.00;36.90
18365;DHT22;9309;52.126;11.616;2023-09-08T15:29:04;28.90;37.00
18365;DHT22;9309;52.126;11.616;2023-09-08T15:31:31;28.80;37.50